Time;durP1;ratioP1;P1;durP2;ratioP2;P2;SDS_P1;SDS_P2;PMS_P1;PMS_P2;Temp;Humidity;BMP_temperature;BMP_pressure;BME280_temperature;BME280_humidity;BME280_pressure;Samples;Min_cycle;Max_cycle;Signal;HPM_P1;HPM_P2
2022/09/04 00:01:08;;;;;;;7.10;3.25;;;;;;;16.17;100.00;164795.88;4991490;28;20061;-65
2022/09/04 00:03:45;;;;;;;2.28;2.05;;;;;;;16.18;100.00;164798.56;4992341;28;20033;-65
2022/09/04 00:06:18;;;;;;;21.33;3.80;;;;;;;16.15;100.00;164789.09;4990894;28;20544;-65
2022/09/04 00:09:17;;;;;;;4.63;2.00;;;;;;;16.10;100.00;164776.91;4990730;28;20080;-65
2022/09/04 00:11:51;;;;;;;4.65;2.33;;;;;;;16.04;100.00;164760.66;4992186;28;20050;-64
2022/09/04 00:14:28;;;;;;;4.53;2.30;;;;;;;16.02;100.00;164755.22;4991366;28;20493;-66
2022/09/04 00:17:02;;;;;;;1.88;1.77;;;;;;;15.99;100.00;164747.09;4992219;28;20030;-66
2022/09/04 00:19:42;;;;;;;6.47;2.53;;;;;;;15.93;100.00;164732.22;4990539;28;20034;-66
2022/09/04 00:22:29;;;;;;;2.25;2.05;;;;;;;15.89;100.00;164720.03;4992475;28;20490;-66
2022/09/04 00:25:08;;;;;;;5.97;2.80;;;;;;;15.84;100.00;164709.19;4990700;28;20509;-66
2022/09/04 00:27:43;;;;;;;4.20;2.00;;;;;;;15.81;100.00;164701.03;4991486;28;21044;-66
2022/09/04 00:30:14;;;;;;;5.78;2.55;;;;;;;15.78;100.00;164692.88;4990956;28;20069;-66
2022/09/04 00:32:54;;;;;;;3.05;2.75;;;;;;;15.76;100.00;164687.47;4992186;28;20015;-65
2022/09/04 00:35:35;;;;;;;6.25;2.92;;;;;;;15.74;100.00;164682.06;4990267;28;20046;-66
2022/09/04 00:38:15;;;;;;;3.00;2.60;;;;;;;15.71;100.00;164675.25;4992459;28;20049;-66
2022/09/04 00:40:55;;;;;;;3.20;2.17;;;;;;;15.67;100.00;164663.13;4990331;28;20042;-65
2022/09/04 00:43:42;;;;;;;8.27;3.10;;;;;;;15.62;100.00;164650.94;4992112;28;20046;-66
2022/09/04 00:46:31;;;;;;;22.15;4.15;;;;;;;15.58;100.00;164638.75;4989756;28;20605;-65
2022/09/04 00:49:15;;;;;;;5.00;2.45;;;;;;;15.50;100.00;164619.78;4990469;28;20049;-63
2022/09/04 00:52:28;;;;;;;1.92;1.70;;;;;;;15.44;100.00;164603.56;4991639;28;20034;-60
2022/09/04 00:55:12;;;;;;;2.80;2.00;;;;;;;15.38;100.00;164587.25;4971014;28;20048;-64
2022/09/04 00:58:08;;;;;;;7.45;2.42;;;;;;;15.33;100.00;164575.13;4972360;28;20153;-64
2022/09/04 01:00:35;;;;;;;3.38;2.13;;;;;;;15.31;100.00;164568.31;4989982;28;20517;-64
2022/09/04 01:03:06;;;;;;;4.82;2.10;;;;;;;15.26;100.00;164556.19;4991583;28;20030;-64
2022/09/04 01:05:48;;;;;;;2.85;2.65;;;;;;;15.26;100.00;164554.78;4990263;28;20097;-65
2022/09/04 01:08:28;;;;;;;2.63;2.15;;;;;;;15.26;100.00;164554.78;4992104;28;20056;-65
2022/09/04 01:11:26;;;;;;;6.32;2.85;;;;;;;15.28;100.00;164560.22;4989293;28;20050;-67
2022/09/04 01:14:14;;;;;;;2.63;2.40;;;;;;;15.28;100.00;164560.22;4990244;28;20050;-67
2022/09/04 01:16:48;;;;;;;5.53;2.25;;;;;;;15.28;100.00;164560.22;4991343;28;20449;-67
2022/09/04 01:19:44;;;;;;;6.45;3.25;;;;;;;15.28;100.00;164560.22;4989999;28;20042;-67
2022/09/04 01:22:32;;;;;;;2.38;2.17;;;;;;;15.21;100.00;164544.00;4987345;28;20026;-67
2022/09/04 01:25:26;;;;;;;5.60;2.83;;;;;;;15.27;100.00;164557.50;4989597;28;20138;-67
2022/09/04 01:28:15;;;;;;;2.45;2.25;;;;;;;15.26;100.00;164554.78;4972087;28;20027;-67
2022/09/04 01:30:49;;;;;;;4.45;1.88;;;;;;;15.26;100.00;164554.78;4973353;28;20046;-67
2022/09/04 01:33:26;;;;;;;4.22;2.80;;;;;;;15.27;100.00;164557.50;4991306;28;20101;-67
2022/09/04 01:36:26;;;;;;;3.75;2.30;;;;;;;15.25;100.00;164552.09;4989595;28;20101;-65
2022/09/04 01:38:56;;;;;;;2.45;2.25;;;;;;;15.20;100.00;164539.88;4970556;28;20117;-64
2022/09/04 01:41:37;;;;;;;9.13;4.47;;;;;;;15.18;100.00;164535.84;4995040;28;20034;-65
2022/09/04 01:44:07;;;;;;;6.55;3.00;;;;;;;15.13;100.00;164520.94;4994157;28;20065;-64
2022/09/04 01:47:02;;;;;;;3.55;3.25;;;;;;;15.13;100.00;164522.31;4994871;28;20061;-65
2022/09/04 01:49:44;;;;;;;6.38;3.00;;;;;;;15.09;100.00;164511.47;4993632;28;20045;-64
2022/09/04 01:52:40;;;;;;;4.20;2.72;;;;;;;15.02;100.00;164492.53;4995057;28;20041;-65
2022/09/04 01:55:35;;;;;;;3.78;2.72;;;;;;;14.98;100.00;164481.72;4993671;28;20096;-64
2022/09/04 01:58:19;;;;;;;8.48;2.65;;;;;;;14.93;100.00;164468.19;4995617;28;20022;-64
2022/09/04 02:00:57;;;;;;;4.03;3.30;;;;;;;14.85;100.00;164449.25;4993208;28;20131;-64
2022/09/04 02:03:28;;;;;;;2.88;2.67;;;;;;;14.80;100.00;164434.34;4994181;28;20030;-64
2022/09/04 02:06:25;;;;;;;5.38;2.75;;;;;;;14.73;100.00;164418.13;4993398;28;20092;-64
2022/09/04 02:09:09;;;;;;;4.28;3.35;;;;;;;14.66;100.00;164397.81;4993052;28;20037;-64
2022/09/04 02:11:35;;;;;;;5.05;3.50;;;;;;;14.58;100.00;164378.81;4993773;28;20034;-65
2022/09/04 02:14:21;;;;;;;3.95;3.22;;;;;;;14.51;100.00;164359.88;4993641;28;20034;-64
2022/09/04 02:17:09;;;;;;;3.58;3.28;;;;;;;14.44;100.00;164340.94;4994289;28;20034;-65
2022/09/04 02:19:44;;;;;;;;;;;;;;;14.43;100.00;164338.22;4993223;28;20133;-65
2022/09/04 02:22:24;;;;;;;3.58;3.28;;;;;;;14.36;100.00;164319.28;4994656;28;19917;-63
2022/09/04 02:25:15;;;;;;;7.95;4.05;;;;;;;14.26;100.00;164294.91;4992950;28;20042;-64
2022/09/04 02:27:57;;;;;;;7.45;4.63;;;;;;;14.19;100.00;164275.97;4994557;28;20041;-64
2022/09/04 02:30:22;;;;;;;7.13;3.53;;;;;;;14.08;100.00;164246.25;4992795;28;20146;-64
2022/09/04 02:32:53;;;;;;;4.10;3.20;;;;;;;13.97;100.00;164217.84;4993679;28;20038;-64
2022/09/04 02:35:22;;;;;;;4.20;3.72;;;;;;;13.91;100.00;164201.63;4993101;28;20046;-65
2022/09/04 02:38:14;;;;;;;3.88;3.58;;;;;;;13.85;100.00;164186.72;4994180;28;20048;-64
2022/09/04 02:40:48;;;;;;;3.70;3.10;;;;;;;13.84;100.00;164184.00;4992268;28;20042;-64
2022/09/04 02:43:20;;;;;;;3.33;3.03;;;;;;;13.83;100.00;164181.31;4993670;28;20030;-64
2022/09/04 02:46:20;;;;;;;5.18;3.58;;;;;;;13.82;100.00;164178.59;4992466;28;20034;-64
2022/09/04 02:49:24;;;;;;;4.28;3.78;;;;;;;13.76;100.00;164162.38;4930957;29;20039;-66
2022/09/04 02:52:08;;;;;;;5.88;4.80;;;;;;;13.68;100.00;164140.72;4943205;28;20054;-66
2022/09/04 02:54:49;;;;;;;6.63;3.45;;;;;;;13.63;100.00;164129.94;4961380;28;20126;-63
2022/09/04 02:57:53;;;;;;;7.75;4.05;;;;;;;13.57;100.00;164113.72;4985534;28;20030;-63
2022/09/04 03:00:32;;;;;;;5.03;3.30;;;;;;;13.49;100.00;164093.41;4992713;28;20050;-63
2022/09/04 03:03:13;;;;;;;4.85;4.43;;;;;;;13.40;100.00;164067.72;4993342;28;20049;-63
2022/09/04 03:06:04;;;;;;;6.22;3.47;;;;;;;13.43;100.00;164075.84;4992086;28;20057;-63
2022/09/04 03:08:42;;;;;;;3.95;3.55;;;;;;;13.45;100.00;164081.22;4974694;28;20089;-63
2022/09/04 03:11:16;;;;;;;4.75;4.20;;;;;;;13.46;100.00;164083.94;4979213;28;20061;-63
2022/09/04 03:14:06;;;;;;;3.92;3.58;;;;;;;13.47;100.00;164086.66;4992372;28;20421;-62
2022/09/04 03:16:52;;;;;;;4.07;3.78;;;;;;;13.46;100.00;164083.94;4993041;28;20027;-63
2022/09/04 03:19:30;;;;;;;7.68;4.15;;;;;;;13.45;100.00;164081.22;4991641;28;20054;-64
2022/09/04 03:22:02;;;;;;;5.15;4.13;;;;;;;13.45;100.00;164081.22;4993504;28;20041;-72
2022/09/04 03:24:51;;;;;;;4.57;4.10;;;;;;;13.47;100.00;164086.66;4992125;28;20089;-72
2022/09/04 03:27:18;;;;;;;4.18;3.78;;;;;;;13.49;100.00;164092.06;4989188;28;20065;-72
2022/09/04 03:30:00;;;;;;;6.82;4.20;;;;;;;13.50;100.00;164094.78;4990682;28;20050;-72
2022/09/04 03:32:45;;;;;;;4.88;4.47;;;;;;;13.52;100.00;164098.81;4993448;28;20374;-72
2022/09/04 03:35:20;;;;;;;4.70;4.30;;;;;;;13.50;100.00;164094.78;4984678;28;20046;-72
2022/09/04 03:38:04;;;;;;;4.28;3.88;;;;;;;13.46;100.00;164083.94;4993198;28;20117;-72
2022/09/04 03:40:52;;;;;;;4.32;3.70;;;;;;;13.41;100.00;164070.44;4991182;28;20125;-71
2022/09/04 03:43:20;;;;;;;4.50;3.40;;;;;;;13.37;100.00;164060.91;4993384;28;20029;-71
2022/09/04 03:46:14;;;;;;;5.50;5.00;;;;;;;13.31;100.00;164046.03;4991041;28;20070;-71
2022/09/04 03:49:06;;;;;;;5.95;4.97;;;;;;;13.25;100.00;164029.81;4991806;28;20033;-70
2022/09/04 03:51:57;;;;;;;7.88;4.88;;;;;;;13.19;100.00;164013.59;4992592;28;20030;-72
2022/09/04 03:55:04;;;;;;;16.13;5.05;;;;;;;13.17;100.00;164008.19;4991706;28;20472;-71
2022/09/04 03:57:54;;;;;;;5.38;4.45;;;;;;;13.19;100.00;164013.59;4985784;28;20041;-68
2022/09/04 04:00:20;;;;;;;5.38;4.82;;;;;;;13.18;100.00;164012.22;4991128;28;20566;-67
2022/09/04 04:02:51;;;;;;;5.65;4.45;;;;;;;13.18;100.00;164010.88;4991360;28;20406;-63
2022/09/04 04:05:16;;;;;;;5.22;4.25;;;;;;;13.16;100.00;164005.47;4991414;28;20126;-63
2022/09/04 04:08:26;;;;;;;5.38;4.75;;;;;;;13.10;100.00;163989.25;4992514;28;20109;-62
2022/09/04 04:11:04;;;;;;;5.10;4.70;;;;;;;13.02;100.00;163970.31;4950249;28;20398;-63
2022/09/04 04:13:35;;;;;;;7.05;5.10;;;;;;;12.95;100.00;163951.41;4972342;28;20498;-62
2022/09/04 04:16:16;;;;;;;7.63;5.63;;;;;;;12.91;100.00;163939.22;4966342;28;20043;-62
2022/09/04 04:18:53;;;;;;;5.88;5.30;;;;;;;12.85;100.00;163924.34;4965732;28;20190;-61
2022/09/04 04:21:30;;;;;;;7.72;4.47;;;;;;;12.80;100.00;163910.84;4967188;28;20604;-59
2022/09/04 04:24:17;;;;;;;7.57;5.72;;;;;;;12.73;100.00;163891.94;4971309;28;20430;-59
2022/09/04 04:26:57;;;;;;;6.95;5.65;;;;;;;12.65;100.00;163871.69;4972479;28;20438;-58
2022/09/04 04:29:59;;;;;;;6.05;5.55;;;;;;;12.62;100.00;163863.53;4962328;28;20050;-59
2022/09/04 04:32:38;;;;;;;5.35;4.85;;;;;;;12.66;100.00;163875.72;4965834;28;20178;-58
2022/09/04 04:35:16;;;;;;;5.38;4.90;;;;;;;12.72;100.00;163889.22;4971255;28;20043;-59
2022/09/04 04:37:49;;;;;;;5.90;4.57;;;;;;;12.74;100.00;163894.63;4972557;28;20121;-58
2022/09/04 04:40:39;;;;;;;9.32;5.78;;;;;;;12.78;100.00;163906.81;4971102;28;20066;-58
2022/09/04 04:43:42;;;;;;;8.93;6.20;;;;;;;12.84;100.00;163921.69;4972763;28;20495;-59
2022/09/04 04:46:55;;;;;;;6.18;5.55;;;;;;;12.87;100.00;163929.78;4966458;28;20117;-59
2022/09/04 04:49:47;;;;;;;5.20;4.80;;;;;;;12.88;100.00;163931.16;4980973;28;20046;-68
2022/09/04 04:52:50;;;;;;;9.77;5.85;;;;;;;12.88;100.00;163932.47;4991120;28;20034;-65
2022/09/04 04:55:46;;;;;;;12.30;6.28;;;;;;;12.87;100.00;163929.78;4988987;28;20490;-67
2022/09/04 04:58:45;;;;;;;6.90;5.47;;;;;;;12.82;100.00;163916.28;4985468;28;20021;-66
2022/09/04 05:01:22;;;;;;;;;;;;;;;12.76;100.00;163900.06;4986131;28;20078;-66
2022/09/04 05:04:12;;;;;;;5.47;5.00;;;;;;;12.72;100.00;163889.22;4988786;28;20009;-66
2022/09/04 05:06:55;;;;;;;8.82;6.53;;;;;;;12.64;100.00;163868.97;4988858;28;20018;-66
2022/09/04 05:09:30;;;;;;;8.60;6.43;;;;;;;12.62;100.00;163864.88;4985553;28;20125;-65
2022/09/04 05:12:40;;;;;;;6.15;5.10;;;;;;;12.63;100.00;163867.59;4991254;28;20119;-64
2022/09/04 05:15:36;;;;;;;13.20;5.80;;;;;;;12.68;100.00;163881.13;4979193;28;20054;-68
2022/09/04 05:18:23;;;;;;;10.27;6.32;;;;;;;12.72;100.00;163889.22;4988040;28;20026;-68
2022/09/04 05:21:04;;;;;;;17.58;6.90;;;;;;;12.75;100.00;163897.34;4989195;28;20129;-70
2022/09/04 05:23:49;;;;;;;7.53;5.85;;;;;;;12.78;100.00;163906.81;4989996;28;20441;-70
2022/09/04 05:26:37;;;;;;;9.95;6.38;;;;;;;12.85;100.00;163924.34;4989732;28;20557;-60
2022/09/04 05:29:34;;;;;;;10.13;4.90;;;;;;;12.88;100.00;163932.47;4986338;28;20046;-70
2022/09/04 05:32:30;;;;;;;11.13;6.60;;;;;;;12.92;100.00;163941.94;4989605;28;20493;-71
2022/09/04 05:35:14;;;;;;;8.68;4.85;;;;;;;12.95;100.00;163951.41;4988007;28;20050;-68
2022/09/04 05:38:00;;;;;;;9.50;5.20;;;;;;;13.00;100.00;163964.91;4989661;28;20125;-64
2022/09/04 05:40:48;;;;;;;9.80;5.65;;;;;;;13.09;100.00;163987.91;4989202;28;20050;-65
2022/09/04 05:43:22;;;;;;;5.72;5.20;;;;;;;13.18;100.00;164012.22;4990854;28;20080;-58
2022/09/04 05:46:16;;;;;;;5.10;4.57;;;;;;;13.34;100.00;164052.78;4987556;28;20490;-63
2022/09/04 05:48:58;;;;;;;14.68;5.47;;;;;;;13.49;100.00;164092.06;4989075;28;20105;-63
2022/09/04 05:51:26;;;;;;;6.43;5.57;;;;;;;13.63;100.00;164129.94;4989761;28;20081;-63
2022/09/04 05:53:54;;;;;;;11.00;5.53;;;;;;;13.76;100.00;164163.75;4988316;28;20390;-63
2022/09/04 05:56:50;;;;;;;7.88;5.10;;;;;;;13.92;100.00;164204.34;4990259;28;20049;-63
2022/09/04 05:59:37;;;;;;;6.03;5.25;;;;;;;14.05;100.00;164238.09;4988273;28;20076;-63
2022/09/04 06:02:20;;;;;;;4.75;4.35;;;;;;;14.17;100.00;164269.22;4990089;28;20034;-63
2022/09/04 06:04:54;;;;;;;4.07;3.78;;;;;;;14.28;100.00;164299.00;4986321;28;20050;-63
2022/09/04 06:07:30;;;;;;;4.75;4.35;;;;;;;14.38;100.00;164324.72;4989113;28;20105;-64
2022/09/04 06:10:28;;;;;;;4.65;4.15;;;;;;;14.48;100.00;164351.78;4988882;28;20086;-63
2022/09/04 06:13:23;;;;;;;9.93;4.60;;;;;;;14.62;100.00;164386.94;4963049;28;20042;-63
2022/09/04 06:16:10;;;;;;;4.90;4.40;;;;;;;14.77;100.00;164427.59;4974434;28;20073;-63
2022/09/04 06:18:59;;;;;;;6.13;5.07;;;;;;;14.94;100.00;164472.25;4990506;28;20069;-63
2022/09/04 06:21:52;;;;;;;6.47;4.70;;;;;;;15.10;100.00;164514.19;4968734;28;20053;-63
2022/09/04 06:24:55;;;;;;;6.05;4.32;;;;;;;15.28;100.00;164560.22;4950794;28;20039;-64
2022/09/04 06:27:50;;;;;;;6.55;4.70;;;;;;;15.46;100.00;164607.59;4963955;28;20033;-63
2022/09/04 06:30:16;;;;;;;7.07;4.47;;;;;;;15.61;100.00;164646.84;4970880;28;20153;-63
2022/09/04 06:33:15;;;;;;;8.15;5.50;;;;;;;15.74;100.00;164682.06;4972653;28;20033;-63
2022/09/04 06:36:02;;;;;;;9.30;4.35;;;;;;;15.90;100.00;164722.75;4971489;28;20066;-64
2022/09/04 06:38:57;;;;;;;5.72;3.70;;;;;;;16.04;100.00;164760.66;4964360;28;20509;-63
2022/09/04 06:41:31;;;;;;;3.95;3.55;;;;;;;16.16;100.00;164793.16;4972952;28;20101;-63
2022/09/04 06:44:24;;;;;;;8.65;4.53;;;;;;;16.31;100.00;164831.06;4974815;28;20100;-63
2022/09/04 06:47:07;;;;;;;7.68;4.95;;;;;;;16.45;100.00;164869.00;4993071;28;20034;-63
2022/09/04 06:49:58;;;;;;;7.57;4.60;;;;;;;16.57;100.00;164900.16;4985180;28;20046;-63
2022/09/04 06:52:39;;;;;;;4.47;4.00;;;;;;;16.69;100.00;164931.31;4992534;28;20558;-64
2022/09/04 06:55:16;;;;;;;18.23;5.45;;;;;;;16.73;100.00;164942.13;4991682;28;20437;-64
2022/09/04 06:58:29;;;;;;;11.18;5.45;;;;;;;16.95;100.00;164999.06;4992331;28;20789;-64
2022/09/04 07:01:07;;;;;;;5.88;3.63;;;;;;;17.07;100.00;165030.25;4988686;28;20054;-64
2022/09/04 07:04:11;;;;;;;5.80;4.05;;;;;;;17.16;100.00;165053.31;4993192;28;20030;-63
2022/09/04 07:07:09;;;;;;;4.32;4.00;;;;;;;17.27;100.00;165083.09;4989161;28;20045;-64
2022/09/04 07:09:40;;;;;;;12.90;5.53;;;;;;;17.34;100.00;165102.06;4996079;28;20408;-64
2022/09/04 07:12:25;;;;;;;6.88;4.20;;;;;;;17.43;100.00;165125.09;5013023;28;20428;-64
2022/09/04 07:15:24;;;;;;;12.25;4.05;;;;;;;17.58;100.00;165165.75;4995307;28;20068;-64
2022/09/04 07:18:06;;;;;;;10.82;4.40;;;;;;;17.74;100.00;165207.81;4992382;28;20034;-63
2022/09/04 07:20:54;;;;;;;7.63;4.65;;;;;;;18.03;100.00;165283.75;4981512;28;20054;-63
2022/09/04 07:23:43;;;;;;;13.13;5.45;;;;;;;18.42;100.00;165385.44;4992346;28;20027;-63
2022/09/04 07:26:09;;;;;;;5.40;3.85;;;;;;;19.06;100.00;165552.31;4991618;28;20058;-63
2022/09/04 07:28:59;;;;;;;5.25;3.63;;;;;;;19.59;100.00;165693.41;4990946;28;20157;-64
2022/09/04 07:31:45;;;;;;;5.72;4.45;;;;;;;19.91;100.00;165776.22;4990568;28;20414;-63
2022/09/04 07:34:20;;;;;;;8.23;4.43;;;;;;;20.01;100.00;165802.00;4989723;28;20039;-64
2022/09/04 07:37:10;;;;;;;8.30;4.05;;;;;;;20.31;100.00;165882.09;4989654;28;20034;-64
2022/09/04 07:40:00;;;;;;;7.65;4.70;;;;;;;20.61;100.00;165962.19;4990975;28;20045;-64
2022/09/04 07:42:47;;;;;;;11.32;4.45;;;;;;;21.21;100.00;166119.75;4992254;28;20104;-64
2022/09/04 07:45:29;;;;;;;11.93;5.95;;;;;;;22.02;100.00;166331.66;4986405;28;20049;-63
2022/09/04 07:47:57;;;;;;;8.85;6.05;;;;;;;22.57;100.00;166477.09;4992416;28;20029;-64
2022/09/04 07:50:34;;;;;;;7.90;4.40;;;;;;;23.20;100.00;166641.59;4990748;28;20043;-64
2022/09/04 07:53:27;;;;;;;10.68;4.70;;;;;;;23.74;100.00;166785.72;4992593;28;20026;-63
2022/09/04 07:56:16;;;;;;;10.15;5.20;;;;;;;23.93;100.00;166834.75;4990765;28;20046;-63
2022/09/04 07:59:15;;;;;;;11.10;5.25;;;;;;;23.62;100.00;166753.13;4989626;28;20485;-63
2022/09/04 08:01:55;;;;;;;8.88;5.10;;;;;;;23.48;100.00;166715.03;4988149;28;20042;-63
2022/09/04 08:04:26;;;;;;;9.43;5.05;;;;;;;23.35;100.00;166682.38;4989112;28;20133;-63
2022/09/04 08:06:59;;;;;;;8.77;5.22;;;;;;;23.28;100.00;166663.34;4990311;28;20504;-63
2022/09/04 08:09:36;;;;;;;6.43;4.97;;;;;;;23.19;100.00;166640.25;4990848;28;20526;-63
2022/09/04 08:12:26;;;;;;;13.32;5.82;;;;;;;23.29;100.00;166666.09;4992016;28;20031;-63
2022/09/04 08:15:09;;;;;;;8.55;4.18;;;;;;;23.63;100.00;166755.84;4989043;28;20113;-63
2022/09/04 08:17:54;;;;;;;7.35;5.25;;;;;;;23.72;100.00;166780.28;4991926;28;20026;-63
2022/09/04 08:20:54;;;;;;;6.63;5.90;;;;;;;24.19;100.00;166902.72;4989073;28;20046;-64
2022/09/04 08:23:41;;;;;;;12.10;5.57;;;;;;;24.77;100.00;167056.50;4991569;28;20128;-64
2022/09/04 08:26:30;;;;;;;12.48;6.32;;;;;;;24.87;100.00;167082.34;4970714;28;20049;-63
2022/09/04 08:29:04;;;;;;;7.18;5.00;;;;;;;25.02;100.00;167123.16;4972352;28;20027;-63
2022/09/04 08:31:52;;;;;;;9.88;5.05;;;;;;;24.91;100.00;167093.19;4990634;28;20045;-63
2022/09/04 08:34:41;;;;;;;7.75;5.15;;;;;;;24.35;100.00;166946.25;4987748;28;20494;-63
2022/09/04 08:37:37;;;;;;;10.63;6.60;;;;;;;24.01;100.00;166856.53;4980659;28;20109;-64
2022/09/04 08:40:37;;;;;;;8.38;4.45;;;;;;;23.99;100.00;166851.06;4988524;28;20042;-64
2022/09/04 08:43:11;;;;;;;9.30;5.78;;;;;;;24.03;100.00;166861.91;4987374;28;20038;-63
2022/09/04 08:45:42;;;;;;;10.85;7.25;;;;;;;23.83;100.00;166808.81;4988014;28;20042;-64
2022/09/04 08:48:31;;;;;;;20.30;6.82;;;;;;;23.58;100.00;166743.59;4990358;28;20037;-64
2022/09/04 08:51:39;;;;;;;9.48;5.60;;;;;;;23.43;100.00;166704.16;4987747;28;20046;-63
2022/09/04 08:54:41;;;;;;;11.02;6.40;;;;;;;23.41;100.00;166698.75;4990166;28;20041;-64
2022/09/04 08:57:25;;;;;;;8.30;6.20;;;;;;;23.56;100.00;166738.16;4990615;28;20036;-64
2022/09/04 09:00:04;;;;;;;8.93;6.32;;;;;;;23.62;100.00;166753.13;4988845;28;20046;-64
2022/09/04 09:03:01;;;;;;;7.80;6.20;;;;;;;23.80;100.00;166800.69;4990356;28;20039;-64
2022/09/04 09:06:06;;;;;;;7.20;5.90;;;;;;;24.02;100.00;166859.19;4986095;28;20038;-64
2022/09/04 09:09:03;;;;;;;8.15;4.90;;;;;;;24.17;100.00;166898.66;4986900;28;20117;-64
2022/09/04 09:12:06;;;;;;;6.77;6.07;;;;;;;24.45;100.00;166972.09;4992796;28;20468;-64
2022/09/04 09:15:19;;;;;;;19.92;6.25;;;;;;;24.70;100.00;167037.44;4992585;28;20112;-64
2022/09/04 09:17:44;;;;;;;8.35;5.15;;;;;;;24.85;100.00;167078.28;4967187;28;20023;-64
2022/09/04 09:20:44;;;;;;;5.43;4.90;;;;;;;24.94;100.00;167101.38;4963979;28;20285;-64
2022/09/04 09:23:43;;;;;;;8.63;6.00;;;;;;;25.08;100.00;167136.75;4973598;28;20046;-64
2022/09/04 09:26:17;;;;;;;6.40;4.80;;;;;;;25.18;100.00;167163.97;4985694;28;20054;-64
2022/09/04 09:29:04;;;;;;;6.10;4.45;;;;;;;25.42;100.00;167227.97;4989628;28;20030;-64
2022/09/04 09:31:48;;;;;;;5.32;4.78;;;;;;;25.80;100.00;167327.34;4991323;28;20050;-62
2022/09/04 09:34:53;;;;;;;6.18;4.55;;;;;;;26.12;100.00;167411.75;4989277;28;20034;-62
2022/09/04 09:37:49;;;;;;;4.72;4.25;;;;;;;26.31;100.00;167460.78;4991064;28;20085;-62
2022/09/04 09:40:40;;;;;;;8.38;4.53;;;;;;;26.26;100.00;167449.84;4989783;28;20042;-62
2022/09/04 09:43:40;;;;;;;7.60;5.10;;;;;;;26.13;100.00;167414.47;4991195;28;20026;-62
2022/09/04 09:46:54;;;;;;;8.10;5.43;;;;;;;26.06;100.00;167395.38;4989181;28;20057;-62
2022/09/04 09:49:54;;;;;;;10.52;4.88;;;;;;;26.06;100.00;167395.38;4973298;28;20405;-62
2022/09/04 09:52:40;;;;;;;10.02;4.68;;;;;;;26.19;100.00;167429.47;4976423;28;20034;-62
2022/09/04 09:55:54;;;;;;;5.28;4.38;;;;;;;26.43;100.00;167493.44;4977008;28;20035;-62
2022/09/04 09:58:48;;;;;;;5.40;4.90;;;;;;;26.78;100.00;167586.06;4990557;28;20470;-62
2022/09/04 10:01:49;;;;;;;10.70;5.07;;;;;;;26.75;100.00;167577.88;4992498;28;20046;-62
2022/09/04 10:04:27;;;;;;;12.70;5.25;;;;;;;26.42;100.00;167490.69;4993013;28;20065;-62
2022/09/04 10:07:24;;;;;;;7.18;4.95;;;;;;;26.70;100.00;167564.22;4994456;28;20354;-62
2022/09/04 10:10:17;;;;;;;7.55;4.35;;;;;;;26.85;100.00;167603.78;4991664;28;20050;-60
2022/09/04 10:13:20;;;;;;;7.90;4.13;;;;;;;26.95;100.00;167629.63;4993565;28;20046;-60
2022/09/04 10:16:17;;;;;;;5.68;3.97;;;;;;;27.22;100.00;167703.16;4990654;28;20050;-60
2022/09/04 10:18:42;;;;;;;6.57;4.60;;;;;;;27.30;100.00;167723.63;4990719;28;20487;-59
2022/09/04 10:21:26;;;;;;;11.27;4.55;;;;;;;27.26;100.00;167711.34;4993475;28;20106;-60
2022/09/04 10:24:13;;;;;;;10.00;4.22;;;;;;;27.32;100.00;167727.69;4991758;28;20026;-60
2022/09/04 10:26:49;;;;;;;6.10;4.13;;;;;;;27.22;100.00;167703.16;4991007;28;20026;-60
2022/09/04 10:29:48;;;;;;;6.90;3.35;;;;;;;27.13;100.00;167678.69;4987489;28;20041;-60
2022/09/04 10:32:31;;;;;;;11.52;3.53;;;;;;;27.04;100.00;167654.16;4991626;28;20026;-60
2022/09/04 10:35:21;;;;;;;5.45;4.00;;;;;;;26.95;100.00;167631.03;4990541;28;20046;-60
2022/09/04 10:38:16;;;;;;;6.60;4.60;;;;;;;27.16;100.00;167685.50;4992425;28;20030;-60
2022/09/04 10:41:31;;;;;;;6.53;4.15;;;;;;;27.22;100.00;167701.81;4984776;28;20042;-61
2022/09/04 10:44:16;;;;;;;7.30;4.25;;;;;;;27.39;100.00;167746.75;4989362;28;20073;-60
2022/09/04 10:47:05;;;;;;;5.82;3.92;;;;;;;27.60;100.00;167801.28;4984566;28;20068;-60
2022/09/04 10:49:37;;;;;;;4.65;4.25;;;;;;;27.58;100.00;167795.88;4990941;28;20041;-60
2022/09/04 10:52:20;;;;;;;5.88;4.28;;;;;;;27.45;100.00;167763.16;4993642;28;20393;-60
2022/09/04 10:55:02;;;;;;;6.53;4.60;;;;;;;27.50;100.00;167776.81;4990959;28;20072;-60
2022/09/04 10:57:53;;;;;;;9.15;4.57;;;;;;;27.55;100.00;167789.06;4992736;28;20018;-60
2022/09/04 11:00:21;;;;;;;6.53;3.88;;;;;;;27.57;100.00;167793.13;4991652;28;20524;-60
2022/09/04 11:02:46;;;;;;;;;;;;;;;27.43;100.00;167757.72;4992750;28;20426;-60
2022/09/04 11:05:40;;;;;;;3.97;3.57;;;;;;;27.63;100.00;167810.81;4991690;28;20013;-60
2022/09/04 11:08:34;;;;;;;4.82;4.38;;;;;;;27.64;100.00;167812.22;4992835;28;20026;-60
2022/09/04 11:11:37;;;;;;;9.20;4.88;;;;;;;27.73;100.00;167835.34;4989597;28;20044;-60
2022/09/04 11:14:33;;;;;;;6.70;4.78;;;;;;;27.82;100.00;167861.22;4988979;28;20100;-60
2022/09/04 11:17:40;;;;;;;4.50;4.00;;;;;;;27.77;100.00;167847.63;4973436;28;20030;-60
2022/09/04 11:20:24;;;;;;;4.50;3.72;;;;;;;27.84;100.00;167866.69;4987599;28;20046;-61
2022/09/04 11:23:08;;;;;;;4.97;3.72;;;;;;;28.18;100.00;167956.63;4992921;28;20134;-61
2022/09/04 11:26:12;;;;;;;5.47;4.63;;;;;;;28.33;100.00;167994.81;4990260;28;20042;-61
2022/09/04 11:29:01;;;;;;;4.45;4.05;;;;;;;27.94;100.00;167891.22;4991429;28;20026;-61
2022/09/04 11:31:47;;;;;;;7.25;3.38;;;;;;;28.03;100.00;167915.75;4991635;28;20074;-61
2022/09/04 11:34:41;;;;;;;4.22;3.47;;;;;;;28.00;100.00;167907.56;4987331;28;20042;-61
2022/09/04 11:37:22;;;;;;;4.20;3.78;;;;;;;28.17;100.00;167953.94;4992239;28;20030;-61
2022/09/04 11:40:33;;;;;;;2.75;2.55;;;;;;;28.42;100.00;168019.31;4974890;28;20042;-61
2022/09/04 11:43:17;;;;;;;7.25;4.10;;;;;;;28.55;100.00;168052.06;4984584;28;20066;-61
2022/09/04 11:46:13;;;;;;;8.88;5.05;;;;;;;28.20;100.00;167959.38;4987559;28;20425;-61
2022/09/04 11:49:08;;;;;;;11.00;3.78;;;;;;;27.98;100.00;167903.47;4987881;28;20030;-60
2022/09/04 11:52:02;;;;;;;9.98;3.83;;;;;;;28.07;100.00;167925.34;4992013;28;20168;-62
2022/09/04 11:54:58;;;;;;;7.03;5.35;;;;;;;28.05;100.00;167921.16;4988903;28;20034;-61
2022/09/04 11:58:02;;;;;;;6.03;4.72;;;;;;;27.66;100.00;167817.66;4997180;28;20437;-61
2022/09/04 12:00:41;;;;;;;4.25;3.85;;;;;;;27.50;100.00;167776.81;4988866;28;20453;-61
2022/09/04 12:03:28;;;;;;;4.68;4.28;;;;;;;27.42;100.00;167755.00;4990428;28;20529;-61
2022/09/04 12:06:25;;;;;;;6.05;4.93;;;;;;;27.49;100.00;167774.06;4989104;28;20056;-61
2022/09/04 12:09:02;;;;;;;;;;;;;;;27.28;100.00;167716.81;4990054;28;20478;-60
2022/09/04 12:11:45;;;;;;;4.03;3.67;;;;;;;27.26;100.00;167711.34;4991494;28;19945;-60
2022/09/04 12:14:29;;;;;;;4.20;3.58;;;;;;;27.29;100.00;167719.56;4986354;28;20054;-61
2022/09/04 12:17:14;;;;;;;4.32;3.65;;;;;;;27.86;100.00;167872.16;4987281;28;20022;-61
2022/09/04 12:20:17;;;;;;;6.63;4.43;;;;;;;28.56;100.00;168054.78;4989347;28;20074;-61
2022/09/04 12:23:08;;;;;;;7.47;3.65;;;;;;;28.78;100.00;168113.41;4988956;28;20042;-61
2022/09/04 12:25:56;;;;;;;6.63;4.13;;;;;;;28.97;100.00;168163.84;4990031;28;20070;-60
2022/09/04 12:28:43;;;;;;;24.02;4.55;;;;;;;29.08;100.00;168193.81;4980026;28;20089;-61
2022/09/04 12:31:41;;;;;;;3.75;3.22;;;;;;;29.19;100.00;168222.41;4989682;28;20108;-61
2022/09/04 12:34:18;;;;;;;3.70;3.15;;;;;;;28.85;99.11;168131.16;4995954;28;20037;-61
2022/09/04 12:37:10;;;;;;;8.07;4.13;;;;;;;28.34;100.00;167997.50;4987288;28;20053;-61
2022/09/04 12:40:01;;;;;;;5.80;3.17;;;;;;;28.12;100.00;167940.28;4986913;28;20023;-61
2022/09/04 12:42:39;;;;;;;4.15;3.55;;;;;;;27.78;100.00;167850.34;4978410;28;20118;-61
2022/09/04 12:45:16;;;;;;;3.35;3.05;;;;;;;27.63;100.00;167809.47;4988847;28;20172;-60